메인 페이지
METAR-TAF:

METAR-TAF

공항 :

상투메, 상투메 프린시페

위도: 00-23N, 경도: 006-43E, 고도: 8m

현재 날씨관측

예보는 37분 전, 10:00시(UTC)에 발표되었습니다.
10kt
온도 28°C
습도 66%
기압 1015 hPa
시정 10km 이상
고도 2000ft 상공 구름 보통
고도 4000ft 상공 구름 많음

METAR: FPST 131000Z 17010KT 9999 SCT020 BKN040 28/21 Q1015 NOSIG

시각: 10:37 (10:37 UTC)

예보

예보는 30 시간 37분 전, 04:00시(UTC)에 발표되었습니다.
예보 대상 시간: 12일 06시부터 13일 12시까지 (UTC)
12kt
시정 10km 이상
고도 1700ft 상공 구름 보통
고도 3300ft 상공 구름 많음
전환 중
12일 10시부터 12일 12시까지 (UTC)
고도 2000ft 상공 구름 조금
고도 4000ft 상공 구름 보통

TAF: FPST 120400Z 1206/1312 17012KT 9999 SCT017 BKN033 BECMG 1210/1212 FEW020 SCT040

4,000개 이상의 공항 관측 자료 및 예보 (METAR 및 TAF 보고).

지도상에서 검색 가능한 기상관측소가 노란 점과 빨간 점으로 표시되어 있습니다.

기상관측소 명을 보려면 표시 위로 마우스를 이동하세요.

날씨 관측과 예보를 보려면 클릭하세요.

지도 변경 : 확대하려면 엑스 표시가 있는 녹색 버튼, 축소하려면 빼기 표시가 있는 녹색 버튼, 다음 페이지의 지도를 보려면 녹색 화살표를 클릭하세요.


METAR-TAF: